Latest Coastal Weather Observations for Port Pirie Airport AWS***

IDS60701

Issued at 11:45 pm CST Wednesday 23 July 2014 (issued every 10 minutes, with the page automatically refreshed every 10 minutes)

About coastal observations | Map of coastal stations | Coastal observations for SA | Marine services | Other Formats
Station Details ID: 250006 Name: PORT PIRIE AERODROME AWS Lat: -33.23 Lon: 138.00 Height: 10.0 m
Data from the previous 72 hours. | See also: Recent months for locations in South Australia
Date/Time
CST
Temp

°C
Wind Pressure Rain
since 9am
mm
Weather Cloud Vis
km
Sea
Height
m
Swell
Dir
 
Speed
knots
Gust
knots
hPa Trend Height
m
Period
s
Dir
23/11:30pm 13.0 N 12 16 - - 3.4 - - - - - - -
23/11:00pm 12.7 NNE 10 17 - - 3.4 - - - - - - -
23/10:30pm 12.5 N 11 17 - - 3.4 - - - - - - -
23/10:00pm 12.8 N 9 14 - - 3.2 - - - - - - -
23/09:30pm 13.3 NE 12 19 - - 3.2 - - - - - - -
23/09:00pm 12.7 NE 11 15 - - 3.2 - - - - - - -
23/08:30pm 12.5 NE 11 17 - - 3.2 - - - - - - -
23/08:00pm 11.9 NE 9 13 - - 3.2 - - - - - - -
23/07:30pm 11.4 NE 9 13 - - 3.2 - - - - - - -
23/07:00pm 10.7 ENE 5 6 - - 3.2 - - - - - - -
23/06:30pm 11.4 NE 9 13 - - 3.0 - - - - - - -
23/06:00pm 11.4 NE 6 8 - - 2.6 Rain - - - - - -
23/05:30pm 11.9 NNE 7 13 - - 2.2 - - - - - - -
23/05:00pm 12.7 N 7 12 - - 1.2 - - - - - - -
23/04:30pm 13.9 N 10 16 - - 0.8 - - - - - - -
23/04:00pm 14.5 N 12 18 - - 0.6 - - - - - - -
23/03:30pm 16.3 NE 16 24 - - 0.6 - - - - - - -
23/03:00pm 16.4 NNE 17 28 - - 0.6 - - - - - - -
23/02:50pm 17.0 NNE 15 25 - - 0.6 - - - - - - -
23/02:30pm 16.6 NE 15 23 - - 0.6 - - - - - - -
23/02:00pm 17.5 NNE 17 25 - - 0.6 - - - - - - -
23/01:36pm 18.1 NE 15 25 - - 0.6 - - - - - - -
23/01:30pm 17.5 NE 14 25 - - 0.6 - - - - - - -
23/01:00pm 16.0 NE 13 18 - - 0.6 - - - - - - -
23/12:30pm 15.4 ENE 8 14 - - 0.6 - - - - - - -
23/12:00pm 14.7 NNE 9 13 - - 0.6 - - - - - - -
23/11:30am 13.5 NE 5 7 - - 0.6 - - - - - - -
23/11:00am 12.2 E 8 14 - - 0.6 - - - - - - -
23/10:30am 12.1 E 7 11 - - 0.6 - - - - - - -
23/10:00am 11.9 ENE 3 5 - - 0.4 - - - - - - -
23/09:30am 11.3 NE 5 7 - - 0.4 - - - - - - -
23/09:00am 11.5 NNE 9 12 - - 0.6 Recent precip. - - - - - -
23/08:30am 11.8 NNE 5 8 - - 0.4 - - - - - - -
23/08:00am 11.2 NE 5 7 - - 0.0 - - - - - - -
23/07:30am 12.7 N 6 8 - - 0.0 - - - - - - -
23/07:00am 13.5 N 7 10 - - 0.0 - - - - - - -
23/06:30am 14.3 N 6 10 - - 0.0 - - - - - - -
23/06:00am 14.9 NNE 9 12 - - 0.0 - - - - - - -
23/05:30am 10.8 E 2 4 - - 0.0 - - - - - - -
23/05:00am 10.0 E 1 3 - - 0.0 - - - - - - -
23/04:30am 10.1 SSE 2 3 - - 0.0 - - - - - - -
23/04:00am 11.3 N 1 3 - - 0.0 - - - - - - -
23/03:30am 10.2 S 2 3 - - 0.0 - - - - - - -
23/03:00am 11.9 ENE 3 5 - - 0.0 - - - - - - -
23/02:30am 15.0 N 5 8 - - 0.0 - - - - - - -
23/02:00am 15.0 N 7 10 - - 0.0 - - - - - - -
23/01:30am 14.9 N 7 10 - - 0.0 - - - - - - -
23/01:00am 14.2 N 5 8 - - 0.0 - - - - - - -
23/12:30am 12.1 N 2 5 - - 0.0 - - - - - - -
23/12:00am 8.9 E 1 3 - - 0.0 - - - - - - -
 
Date/Time
CST
Temp

°C
Wind Pressure Rain
since 9am
mm
Weather Cloud Vis
km
Sea
Height
m
Swell
Dir
 
Speed
knots
Gust
knots
hPa Trend Height
m
Period
s
Dir
22/11:30pm 10.7 N 1 3 - - 0.0 - - - - - - -
22/11:00pm 11.5 CALM 0 1 - - 0.0 - - - - - - -
22/10:30pm 12.7 N 2 5 - - 0.0 - - - - - - -
22/10:00pm 11.3 NNW 2 5 - - 0.0 - - - - - - -
22/09:30pm 8.7 CALM 0 2 - - 0.0 - - - - - - -
22/09:00pm 7.2 SE 2 3 - - 0.0 - - - - - - -
22/08:30pm 7.2 E 1 2 - - 0.0 - - - - - - -
22/08:00pm 8.1 SE 2 3 - - 0.0 - - - - - - -
22/07:30pm 8.3 SE 3 5 - - 0.0 - - - - - - -
22/07:00pm 9.2 SE 3 5 - - 0.0 - - - - - - -
22/06:30pm 9.7 SE 3 4 - - 0.0 - - - - - - -
22/06:00pm 11.2 SSE 3 4 - - 0.0 - - - - - - -
22/05:30pm 14.6 SSE 1 2 - - 0.0 - - - - - - -
22/05:00pm 16.0 E 3 3 - - 0.0 - - - - - - -
22/04:30pm 17.3 ENE 2 4 - - 0.0 - - - - - - -
22/04:00pm 18.3 NNE 2 5 - - 0.0 - - - - - - -
22/03:30pm 19.6 NNW 3 5 - - 0.0 - - - - - - -
22/03:00pm 19.3 N 4 7 - - 0.0 - - - - - - -
22/02:30pm 18.8 NNE 4 7 - - 0.0 - - - - - - -
22/02:00pm 18.5 NNE 5 8 - - 0.0 - - - - - - -
22/01:30pm 18.6 N 5 10 - - 0.0 - - - - - - -
22/01:00pm 18.4 N 7 10 - - 0.0 - - - - - - -
22/12:30pm 18.2 N 6 10 - - 0.0 - - - - - - -
22/12:00pm 17.8 N 3 7 - - 0.0 - - - - - - -
22/11:30am 17.4 NNE 2 5 - - 0.0 - - - - - - -
22/11:00am 16.8 N 2 3 - - 0.0 - - - - - - -
22/10:30am 15.5 N 1 2 - - 0.0 - - - - - - -
22/10:00am 12.6 SW 1 1 - - 0.0 - - - - - - -
22/09:30am 10.4 CALM 0 1 - - 0.0 - - - - - - -
22/09:00am 8.4 SSE 2 2 - - 0.0 - - - - - - -
22/08:30am 6.0 SE 2 4 - - 0.0 - - - - - - -
22/08:00am 3.0 SSE 3 4 - - 0.0 - - - - - - -
22/07:30am 1.5 S 3 3 - - 0.0 - - - - - - -
22/07:00am 1.7 SE 2 2 - - 0.0 - - - - - - -
22/06:30am 1.3 SE 3 4 - - 0.0 - - - - - - -
22/06:00am 1.5 ESE 2 3 - - 0.0 - - - - - - -
22/05:30am 2.1 S 3 4 - - 0.0 - - - - - - -
22/05:00am 2.5 SE 1 1 - - 0.0 - - - - - - -
22/04:30am 2.3 E 2 2 - - 0.0 - - - - - - -
22/04:00am 2.6 SSE 3 4 - - 0.0 - - - - - - -
22/03:30am 3.2 SSE 2 3 - - 0.0 - - - - - - -
22/03:00am 3.3 SE 3 4 - - 0.0 - - - - - - -
22/02:30am 4.0 SE 1 2 - - 0.0 - - - - - - -
22/02:00am 4.6 SSE 3 4 - - 0.0 - - - - - - -
22/01:30am 6.0 SSE 2 3 - - 0.0 - - - - - - -
22/01:00am 6.4 SE 2 2 - - 0.0 - - - - - - -
22/12:30am 6.5 SSE 1 2 - - 0.0 - - - - - - -
22/12:00am 6.2 SE 2 3 - - 0.0 - - - - - - -
 
Date/Time
CST
Temp

°C
Wind Pressure Rain
since 9am
mm
Weather Cloud Vis
km
Sea
Height
m
Swell
Dir
 
Speed
knots
Gust
knots
hPa Trend Height
m
Period
s
Dir
21/11:30pm 5.3 SSE 2 4 - - 0.0 - - - - - - -
21/11:00pm 4.8 SSE 2 4 - - 0.0 - - - - - - -
21/10:30pm 5.0 ESE 3 4 - - 0.0 - - - - - - -
21/10:00pm 5.5 ESE 2 3 - - 0.0 - - - - - - -
21/09:30pm 6.2 E 3 3 - - 0.0 - - - - - - -
21/09:00pm 7.2 SSE 3 3 - - 0.0 - - - - - - -
21/08:30pm 8.7 CALM 0 0 - - 0.0 - - - - - - -
21/08:00pm 9.2 CALM 0 1 - - 0.0 - - - - - - -
21/07:30pm 9.3 ESE 2 3 - - 0.0 - - - - - - -
21/07:00pm 10.1 SE 4 4 - - 0.0 - - - - - - -
21/06:30pm 10.3 SE 3 4 - - 0.0 - - - - - - -
21/06:00pm 11.1 ESE 2 3 - - 0.0 - - - - - - -
21/05:30pm 11.6 E 3 5 - - 0.0 - - - - - - -
21/05:00pm 12.5 ENE 3 4 - - 0.0 - - - - - - -
21/04:30pm 15.1 N 3 6 - - 0.0 - - - - - - -
21/04:00pm 16.1 N 3 5 - - 0.0 - - - - - - -
21/03:30pm 15.9 NNW 3 5 - - 0.0 - - - - - - -
21/03:00pm 15.6 NW 5 7 - - 0.0 - - - - - - -
21/02:30pm 16.3 NNW 3 4 - - 0.0 - - - - - - -
21/02:00pm 15.8 N 4 7 - - 0.0 - - - - - - -
21/01:30pm 15.5 N 4 8 - - 0.0 - - - - - - -
21/01:00pm 15.5 N 8 13 - - 0.0 - - - - - - -
21/12:30pm 15.9 N 7 12 - - 0.0 - - - - - - -
21/12:00pm 15.8 N 6 12 - - 0.0 - - - - - - -
21/11:30am 16.4 N 5 8 - - 0.0 - - - - - - -
21/11:00am 15.8 NNE 6 8 - - 0.0 - - - - - - -
21/10:30am 14.4 NNE 7 9 - - 0.0 - - - - - - -
21/10:00am 14.9 NNE 6 9 - - 0.0 - - - - - - -
21/09:30am 13.9 N 6 9 - - 0.0 - - - - - - -
21/09:00am 11.6 NW 2 4 - - 0.0 - - - - - - -
21/08:30am 7.6 S 1 1 - - 0.0 - - - - - - -
21/08:00am 5.8 CALM 0 0 - - 0.0 - - - - - - -
21/07:30am 4.8 NE 1 2 - - 0.0 - - - - - - -
21/07:00am 4.7 E 1 2 - - 0.0 - - - - - - -
21/06:30am 5.5 S 2 2 - - 0.0 - - - - - - -
21/06:00am 6.1 ESE 2 3 - - 0.0 - - - - - - -
21/05:30am 6.9 SE 2 4 - - 0.0 - - - - - - -
21/05:00am 7.3 NW 1 2 - - 0.0 - - - - - - -
21/04:30am 9.4 N 2 5 - - 0.0 - - - - - - -
21/04:00am 8.0 WNW 2 4 - - 0.0 - - - - - - -
21/03:30am 8.9 N 5 7 - - 0.0 - - - - - - -
21/03:00am 9.1 NW 3 6 - - 0.0 - - - - - - -
21/02:30am 10.5 NNE 11 15 - - 0.0 - - - - - - -
21/02:00am 9.8 NNE 7 11 - - 0.0 - - - - - - -
21/01:30am 10.1 N 7 10 - - 0.0 - - - - - - -
21/01:00am 9.7 NNE 8 11 - - 0.0 - - - - - - -
21/12:30am 5.2 ENE 2 4 - - 0.0 - - - - - - -
21/12:00am 5.2 E 1 3 - - 0.0 - - - - - - -

Other Formats:

Comma delimited format used in spreadsheet applications
http://www.bom.gov.au/fwo/IDS60701/IDS60701.99001.axf

JavaScript Object Notation format (JSON) in row-major order
http://www.bom.gov.au/fwo/IDS60701/IDS60701.99001.json